sensor_id;sensor_type;location;lat;lon;timestamp;P1;durP1;ratioP1;P2;durP2;ratioP2
9188;SDS011;34313;50.780;6.084;2023-01-25T00:00:41;29.40;;;19.17;;
9188;SDS011;34313;50.780;6.084;2023-01-25T00:03:06;34.90;;;19.80;;
9188;SDS011;34313;50.780;6.084;2023-01-25T00:05:32;33.40;;;19.70;;
9188;SDS011;34313;50.780;6.084;2023-01-25T00:07:57;30.67;;;18.80;;
9188;SDS011;34313;50.780;6.084;2023-01-25T00:10:23;31.57;;;19.70;;
9188;SDS011;34313;50.780;6.084;2023-01-25T00:12:48;27.00;;;18.37;;
9188;SDS011;34313;50.780;6.084;2023-01-25T00:15:13;33.17;;;19.47;;
9188;SDS011;34313;50.780;6.084;2023-01-25T00:17:39;32.87;;;20.03;;
9188;SDS011;34313;50.780;6.084;2023-01-25T00:20:04;33.07;;;19.47;;
9188;SDS011;34313;50.780;6.084;2023-01-25T00:22:30;30.97;;;19.60;;
9188;SDS011;34313;50.780;6.084;2023-01-25T00:24:55;33.30;;;20.17;;
9188;SDS011;34313;50.780;6.084;2023-01-25T00:27:20;30.00;;;19.80;;
9188;SDS011;34313;50.780;6.084;2023-01-25T00:29:46;31.77;;;19.00;;
9188;SDS011;34313;50.780;6.084;2023-01-25T00:34:47;33.30;;;20.73;;
9188;SDS011;34313;50.780;6.084;2023-01-25T00:37:35;27.87;;;18.33;;
9188;SDS011;34313;50.780;6.084;2023-01-25T00:40:03;30.07;;;19.50;;
9188;SDS011;34313;50.780;6.084;2023-01-25T00:42:29;29.23;;;19.83;;
9188;SDS011;34313;50.780;6.084;2023-01-25T00:44:54;32.60;;;19.13;;
9188;SDS011;34313;50.780;6.084;2023-01-25T00:47:19;32.00;;;19.93;;
9188;SDS011;34313;50.780;6.084;2023-01-25T00:49:45;29.00;;;18.87;;
9188;SDS011;34313;50.780;6.084;2023-01-25T00:52:11;36.77;;;21.00;;
9188;SDS011;34313;50.780;6.084;2023-01-25T00:54:36;33.20;;;19.33;;
9188;SDS011;34313;50.780;6.084;2023-01-25T00:57:02;29.53;;;17.17;;
9188;SDS011;34313;50.780;6.084;2023-01-25T00:59:27;31.33;;;18.97;;
9188;SDS011;34313;50.780;6.084;2023-01-25T01:01:54;30.80;;;18.97;;
9188;SDS011;34313;50.780;6.084;2023-01-25T01:04:20;30.90;;;19.23;;
9188;SDS011;34313;50.780;6.084;2023-01-25T01:06:49;30.27;;;17.73;;
9188;SDS011;34313;50.780;6.084;2023-01-25T01:09:16;31.03;;;18.03;;
9188;SDS011;34313;50.780;6.084;2023-01-25T01:11:42;30.60;;;18.17;;
9188;SDS011;34313;50.780;6.084;2023-01-25T01:14:08;27.67;;;17.23;;
9188;SDS011;34313;50.780;6.084;2023-01-25T01:16:34;29.03;;;17.67;;
9188;SDS011;34313;50.780;6.084;2023-01-25T01:18:59;31.30;;;17.30;;
9188;SDS011;34313;50.780;6.084;2023-01-25T01:21:24;32.97;;;19.87;;
9188;SDS011;34313;50.780;6.084;2023-01-25T01:23:50;28.40;;;18.73;;
9188;SDS011;34313;50.780;6.084;2023-01-25T01:26:16;31.93;;;19.43;;
9188;SDS011;34313;50.780;6.084;2023-01-25T01:28:45;27.67;;;17.20;;
9188;SDS011;34313;50.780;6.084;2023-01-25T01:31:12;29.40;;;17.00;;
9188;SDS011;34313;50.780;6.084;2023-01-25T01:33:42;34.43;;;18.87;;
9188;SDS011;34313;50.780;6.084;2023-01-25T01:36:08;31.60;;;18.03;;
9188;SDS011;34313;50.780;6.084;2023-01-25T01:38:36;34.17;;;20.60;;
9188;SDS011;34313;50.780;6.084;2023-01-25T01:41:01;36.97;;;21.20;;
9188;SDS011;34313;50.780;6.084;2023-01-25T01:43:27;35.27;;;19.40;;
9188;SDS011;34313;50.780;6.084;2023-01-25T01:45:55;35.90;;;19.73;;
9188;SDS011;34313;50.780;6.084;2023-01-25T01:53:47;32.70;;;18.40;;
9188;SDS011;34313;50.780;6.084;2023-01-25T01:56:18;30.17;;;17.53;;
9188;SDS011;34313;50.780;6.084;2023-01-25T01:58:48;37.80;;;19.97;;
9188;SDS011;34313;50.780;6.084;2023-01-25T02:01:17;34.07;;;19.13;;
9188;SDS011;34313;50.780;6.084;2023-01-25T02:03:44;34.73;;;20.10;;
9188;SDS011;34313;50.780;6.084;2023-01-25T02:06:12;34.27;;;18.90;;
9188;SDS011;34313;50.780;6.084;2023-01-25T02:08:39;32.53;;;18.83;;
9188;SDS011;34313;50.780;6.084;2023-01-25T02:11:07;35.33;;;18.63;;
9188;SDS011;34313;50.780;6.084;2023-01-25T02:13:33;31.50;;;18.07;;
9188;SDS011;34313;50.780;6.084;2023-01-25T02:15:59;33.53;;;20.17;;
9188;SDS011;34313;50.780;6.084;2023-01-25T02:18:25;34.10;;;18.00;;
9188;SDS011;34313;50.780;6.084;2023-01-25T02:20:51;35.97;;;19.27;;
9188;SDS011;34313;50.780;6.084;2023-01-25T02:25:46;31.30;;;16.83;;
9188;SDS011;34313;50.780;6.084;2023-01-25T02:28:17;32.13;;;18.27;;
9188;SDS011;34313;50.780;6.084;2023-01-25T02:30:46;32.30;;;17.10;;
9188;SDS011;34313;50.780;6.084;2023-01-25T02:33:12;27.60;;;17.00;;
9188;SDS011;34313;50.780;6.084;2023-01-25T02:38:06;33.70;;;18.57;;
9188;SDS011;34313;50.780;6.084;2023-01-25T02:40:35;35.43;;;19.13;;
9188;SDS011;34313;50.780;6.084;2023-01-25T02:43:08;30.30;;;18.70;;
9188;SDS011;34313;50.780;6.084;2023-01-25T02:45:34;39.40;;;20.40;;
9188;SDS011;34313;50.780;6.084;2023-01-25T02:47:59;30.77;;;16.80;;
9188;SDS011;34313;50.780;6.084;2023-01-25T02:50:24;33.73;;;18.33;;
9188;SDS011;34313;50.780;6.084;2023-01-25T02:52:49;36.43;;;18.67;;
9188;SDS011;34313;50.780;6.084;2023-01-25T02:55:15;33.67;;;17.10;;
9188;SDS011;34313;50.780;6.084;2023-01-25T02:57:40;34.77;;;18.70;;
9188;SDS011;34313;50.780;6.084;2023-01-25T03:00:06;34.57;;;18.30;;
9188;SDS011;34313;50.780;6.084;2023-01-25T03:02:32;30.30;;;17.30;;
9188;SDS011;34313;50.780;6.084;2023-01-25T03:04:57;38.07;;;18.47;;
9188;SDS011;34313;50.780;6.084;2023-01-25T03:07:22;36.20;;;18.90;;
9188;SDS011;34313;50.780;6.084;2023-01-25T03:09:48;31.73;;;17.77;;
9188;SDS011;34313;50.780;6.084;2023-01-25T03:12:13;38.50;;;19.67;;
9188;SDS011;34313;50.780;6.084;2023-01-25T03:14:38;36.07;;;19.47;;
9188;SDS011;34313;50.780;6.084;2023-01-25T03:17:04;39.70;;;20.77;;
9188;SDS011;34313;50.780;6.084;2023-01-25T03:19:29;36.33;;;18.37;;
9188;SDS011;34313;50.780;6.084;2023-01-25T03:21:54;36.53;;;20.67;;
9188;SDS011;34313;50.780;6.084;2023-01-25T03:24:19;36.87;;;20.90;;
9188;SDS011;34313;50.780;6.084;2023-01-25T03:26:45;43.73;;;21.93;;
9188;SDS011;34313;50.780;6.084;2023-01-25T03:29:29;41.03;;;21.17;;
9188;SDS011;34313;50.780;6.084;2023-01-25T03:31:54;41.47;;;21.87;;
9188;SDS011;34313;50.780;6.084;2023-01-25T03:34:19;38.10;;;19.90;;
9188;SDS011;34313;50.780;6.084;2023-01-25T03:36:45;35.30;;;19.47;;
9188;SDS011;34313;50.780;6.084;2023-01-25T03:39:10;38.10;;;19.90;;
9188;SDS011;34313;50.780;6.084;2023-01-25T03:41:35;39.40;;;20.57;;
9188;SDS011;34313;50.780;6.084;2023-01-25T03:44:01;41.40;;;22.50;;
9188;SDS011;34313;50.780;6.084;2023-01-25T03:46:26;36.53;;;19.87;;
9188;SDS011;34313;50.780;6.084;2023-01-25T03:48:51;38.63;;;20.50;;
9188;SDS011;34313;50.780;6.084;2023-01-25T03:51:17;41.07;;;20.40;;
9188;SDS011;34313;50.780;6.084;2023-01-25T03:53:42;41.57;;;20.03;;
9188;SDS011;34313;50.780;6.084;2023-01-25T03:56:08;38.60;;;19.93;;
9188;SDS011;34313;50.780;6.084;2023-01-25T03:58:36;43.23;;;20.77;;
9188;SDS011;34313;50.780;6.084;2023-01-25T04:01:03;40.47;;;20.70;;
9188;SDS011;34313;50.780;6.084;2023-01-25T04:03:30;41.73;;;22.30;;
9188;SDS011;34313;50.780;6.084;2023-01-25T04:05:55;39.63;;;21.40;;
9188;SDS011;34313;50.780;6.084;2023-01-25T04:08:22;47.03;;;22.37;;
9188;SDS011;34313;50.780;6.084;2023-01-25T04:10:52;46.43;;;21.43;;
9188;SDS011;34313;50.780;6.084;2023-01-25T04:13:22;43.40;;;21.83;;
9188;SDS011;34313;50.780;6.084;2023-01-25T04:15:50;39.60;;;20.27;;
9188;SDS011;34313;50.780;6.084;2023-01-25T04:18:16;35.73;;;20.07;;
9188;SDS011;34313;50.780;6.084;2023-01-25T04:20:42;40.63;;;20.63;;
9188;SDS011;34313;50.780;6.084;2023-01-25T04:23:07;40.83;;;21.33;;
9188;SDS011;34313;50.780;6.084;2023-01-25T04:25:33;38.47;;;20.80;;
9188;SDS011;34313;50.780;6.084;2023-01-25T04:27:59;39.23;;;20.60;;
9188;SDS011;34313;50.780;6.084;2023-01-25T04:30:24;40.97;;;21.07;;
9188;SDS011;34313;50.780;6.084;2023-01-25T04:32:49;35.47;;;20.03;;
9188;SDS011;34313;50.780;6.084;2023-01-25T04:35:15;42.47;;;20.43;;
9188;SDS011;34313;50.780;6.084;2023-01-25T04:37:40;41.07;;;21.43;;
9188;SDS011;34313;50.780;6.084;2023-01-25T04:40:06;40.37;;;19.63;;
9188;SDS011;34313;50.780;6.084;2023-01-25T04:42:33;39.43;;;19.97;;
9188;SDS011;34313;50.780;6.084;2023-01-25T04:44:58;35.83;;;18.30;;
9188;SDS011;34313;50.780;6.084;2023-01-25T04:47:24;40.13;;;20.50;;
9188;SDS011;34313;50.780;6.084;2023-01-25T04:49:49;38.17;;;19.53;;
9188;SDS011;34313;50.780;6.084;2023-01-25T04:52:14;35.93;;;18.30;;
9188;SDS011;34313;50.780;6.084;2023-01-25T04:54:40;38.67;;;19.20;;
9188;SDS011;34313;50.780;6.084;2023-01-25T04:57:05;37.50;;;17.67;;
9188;SDS011;34313;50.780;6.084;2023-01-25T04:59:30;35.87;;;18.60;;
9188;SDS011;34313;50.780;6.084;2023-01-25T05:01:56;40.30;;;19.77;;
9188;SDS011;34313;50.780;6.084;2023-01-25T05:04:21;33.63;;;18.00;;
9188;SDS011;34313;50.780;6.084;2023-01-25T05:06:46;44.20;;;18.30;;
9188;SDS011;34313;50.780;6.084;2023-01-25T05:09:11;39.47;;;17.97;;
9188;SDS011;34313;50.780;6.084;2023-01-25T05:11:37;36.60;;;18.63;;
9188;SDS011;34313;50.780;6.084;2023-01-25T05:14:02;35.33;;;18.07;;
9188;SDS011;34313;50.780;6.084;2023-01-25T05:16:28;34.00;;;15.73;;
9188;SDS011;34313;50.780;6.084;2023-01-25T05:18:54;35.57;;;16.50;;
9188;SDS011;34313;50.780;6.084;2023-01-25T05:21:20;37.23;;;18.43;;
9188;SDS011;34313;50.780;6.084;2023-01-25T05:24:04;38.37;;;18.50;;
9188;SDS011;34313;50.780;6.084;2023-01-25T05:26:29;40.50;;;20.27;;
9188;SDS011;34313;50.780;6.084;2023-01-25T05:29:13;35.07;;;16.57;;
9188;SDS011;34313;50.780;6.084;2023-01-25T05:31:38;37.00;;;17.47;;
9188;SDS011;34313;50.780;6.084;2023-01-25T05:34:04;36.80;;;17.10;;
9188;SDS011;34313;50.780;6.084;2023-01-25T05:36:29;37.73;;;17.80;;
9188;SDS011;34313;50.780;6.084;2023-01-25T05:38:54;39.03;;;19.00;;
9188;SDS011;34313;50.780;6.084;2023-01-25T05:41:20;37.27;;;17.50;;
9188;SDS011;34313;50.780;6.084;2023-01-25T05:43:48;33.40;;;17.37;;
9188;SDS011;34313;50.780;6.084;2023-01-25T05:46:13;34.40;;;16.57;;
9188;SDS011;34313;50.780;6.084;2023-01-25T05:48:39;33.13;;;16.20;;
9188;SDS011;34313;50.780;6.084;2023-01-25T05:51:04;39.40;;;17.40;;
9188;SDS011;34313;50.780;6.084;2023-01-25T05:53:30;36.30;;;16.20;;
9188;SDS011;34313;50.780;6.084;2023-01-25T05:55:56;35.70;;;16.10;;
9188;SDS011;34313;50.780;6.084;2023-01-25T05:58:27;34.23;;;15.97;;
9188;SDS011;34313;50.780;6.084;2023-01-25T06:00:52;36.33;;;16.37;;
9188;SDS011;34313;50.780;6.084;2023-01-25T06:03:18;33.83;;;16.40;;
9188;SDS011;34313;50.780;6.084;2023-01-25T06:05:43;35.67;;;16.80;;
9188;SDS011;34313;50.780;6.084;2023-01-25T06:08:08;36.30;;;16.07;;
9188;SDS011;34313;50.780;6.084;2023-01-25T06:10:34;35.83;;;15.50;;
9188;SDS011;34313;50.780;6.084;2023-01-25T06:15:25;43.00;;;17.27;;
9188;SDS011;34313;50.780;6.084;2023-01-25T06:17:54;37.30;;;17.30;;
9188;SDS011;34313;50.780;6.084;2023-01-25T06:20:20;39.67;;;16.33;;
9188;SDS011;34313;50.780;6.084;2023-01-25T06:22:51;33.97;;;16.50;;
9188;SDS011;34313;50.780;6.084;2023-01-25T06:25:17;39.93;;;18.53;;
9188;SDS011;34313;50.780;6.084;2023-01-25T06:27:42;34.43;;;17.00;;
9188;SDS011;34313;50.780;6.084;2023-01-25T06:30:08;31.73;;;15.67;;
9188;SDS011;34313;50.780;6.084;2023-01-25T06:32:34;37.70;;;18.27;;
9188;SDS011;34313;50.780;6.084;2023-01-25T06:34:59;37.50;;;17.27;;
9188;SDS011;34313;50.780;6.084;2023-01-25T06:37:24;33.40;;;16.27;;
9188;SDS011;34313;50.780;6.084;2023-01-25T06:39:50;32.70;;;15.93;;
9188;SDS011;34313;50.780;6.084;2023-01-25T06:42:15;38.70;;;16.50;;
9188;SDS011;34313;50.780;6.084;2023-01-25T06:44:41;38.93;;;15.77;;
9188;SDS011;34313;50.780;6.084;2023-01-25T06:47:09;34.40;;;16.67;;
9188;SDS011;34313;50.780;6.084;2023-01-25T06:49:35;34.73;;;16.80;;
9188;SDS011;34313;50.780;6.084;2023-01-25T06:52:00;33.10;;;16.47;;
9188;SDS011;34313;50.780;6.084;2023-01-25T06:54:26;33.80;;;15.77;;
9188;SDS011;34313;50.780;6.084;2023-01-25T06:56:51;34.80;;;17.87;;
9188;SDS011;34313;50.780;6.084;2023-01-25T06:59:17;36.63;;;18.40;;
9188;SDS011;34313;50.780;6.084;2023-01-25T07:01:42;35.33;;;16.47;;
9188;SDS011;34313;50.780;6.084;2023-01-25T07:04:08;33.63;;;17.17;;
9188;SDS011;34313;50.780;6.084;2023-01-25T07:06:36;34.80;;;17.90;;
9188;SDS011;34313;50.780;6.084;2023-01-25T07:09:06;38.43;;;18.13;;
9188;SDS011;34313;50.780;6.084;2023-01-25T07:11:35;33.93;;;17.20;;
9188;SDS011;34313;50.780;6.084;2023-01-25T07:14:01;38.10;;;17.10;;
9188;SDS011;34313;50.780;6.084;2023-01-25T07:16:27;35.43;;;16.93;;
9188;SDS011;34313;50.780;6.084;2023-01-25T07:18:53;35.20;;;17.03;;
9188;SDS011;34313;50.780;6.084;2023-01-25T07:21:20;36.40;;;16.40;;
9188;SDS011;34313;50.780;6.084;2023-01-25T07:23:47;42.07;;;18.23;;
9188;SDS011;34313;50.780;6.084;2023-01-25T07:28:44;38.40;;;17.73;;
9188;SDS011;34313;50.780;6.084;2023-01-25T07:31:10;38.27;;;17.30;;
9188;SDS011;34313;50.780;6.084;2023-01-25T07:33:36;41.10;;;18.40;;
9188;SDS011;34313;50.780;6.084;2023-01-25T07:36:01;38.40;;;18.40;;
9188;SDS011;34313;50.780;6.084;2023-01-25T07:38:28;41.80;;;18.40;;
9188;SDS011;34313;50.780;6.084;2023-01-25T07:40:54;38.63;;;19.13;;
9188;SDS011;34313;50.780;6.084;2023-01-25T07:43:19;33.37;;;17.40;;
9188;SDS011;34313;50.780;6.084;2023-01-25T07:45:44;42.30;;;19.10;;
9188;SDS011;34313;50.780;6.084;2023-01-25T07:48:13;46.43;;;19.30;;
9188;SDS011;34313;50.780;6.084;2023-01-25T07:50:39;39.97;;;19.17;;
9188;SDS011;34313;50.780;6.084;2023-01-25T07:53:05;42.70;;;19.50;;
9188;SDS011;34313;50.780;6.084;2023-01-25T07:55:31;41.83;;;18.97;;
9188;SDS011;34313;50.780;6.084;2023-01-25T07:57:56;40.37;;;17.50;;
9188;SDS011;34313;50.780;6.084;2023-01-25T08:00:21;44.57;;;18.10;;
9188;SDS011;34313;50.780;6.084;2023-01-25T08:02:50;43.83;;;19.90;;
9188;SDS011;34313;50.780;6.084;2023-01-25T08:05:16;37.57;;;18.50;;
9188;SDS011;34313;50.780;6.084;2023-01-25T08:07:41;40.83;;;18.30;;
9188;SDS011;34313;50.780;6.084;2023-01-25T08:10:07;36.27;;;17.60;;
9188;SDS011;34313;50.780;6.084;2023-01-25T08:12:33;36.37;;;18.37;;
9188;SDS011;34313;50.780;6.084;2023-01-25T08:14:59;38.17;;;18.20;;
9188;SDS011;34313;50.780;6.084;2023-01-25T08:17:24;41.73;;;19.07;;
9188;SDS011;34313;50.780;6.084;2023-01-25T08:19:55;41.40;;;19.80;;
9188;SDS011;34313;50.780;6.084;2023-01-25T08:22:22;40.20;;;18.93;;
9188;SDS011;34313;50.780;6.084;2023-01-25T08:24:48;39.17;;;19.17;;
9188;SDS011;34313;50.780;6.084;2023-01-25T08:27:14;40.17;;;18.87;;
9188;SDS011;34313;50.780;6.084;2023-01-25T08:29:39;43.60;;;19.50;;
9188;SDS011;34313;50.780;6.084;2023-01-25T08:32:05;42.67;;;20.27;;
9188;SDS011;34313;50.780;6.084;2023-01-25T08:34:31;43.00;;;19.47;;
9188;SDS011;34313;50.780;6.084;2023-01-25T08:36:57;39.00;;;18.37;;
9188;SDS011;34313;50.780;6.084;2023-01-25T08:39:22;40.60;;;19.27;;
9188;SDS011;34313;50.780;6.084;2023-01-25T08:41:47;42.17;;;19.40;;
9188;SDS011;34313;50.780;6.084;2023-01-25T08:44:13;40.20;;;19.87;;
9188;SDS011;34313;50.780;6.084;2023-01-25T08:46:38;47.67;;;19.50;;
9188;SDS011;34313;50.780;6.084;2023-01-25T08:49:04;47.50;;;20.57;;
9188;SDS011;34313;50.780;6.084;2023-01-25T08:51:30;50.57;;;20.07;;
9188;SDS011;34313;50.780;6.084;2023-01-25T08:53:56;41.33;;;19.10;;
9188;SDS011;34313;50.780;6.084;2023-01-25T08:56:25;44.17;;;21.03;;
9188;SDS011;34313;50.780;6.084;2023-01-25T08:58:50;46.73;;;21.67;;
9188;SDS011;34313;50.780;6.084;2023-01-25T09:01:17;46.60;;;19.67;;
9188;SDS011;34313;50.780;6.084;2023-01-25T09:03:44;39.40;;;17.60;;
9188;SDS011;34313;50.780;6.084;2023-01-25T09:06:12;39.93;;;19.50;;
9188;SDS011;34313;50.780;6.084;2023-01-25T09:08:38;47.07;;;20.07;;
9188;SDS011;34313;50.780;6.084;2023-01-25T09:11:04;37.87;;;18.70;;
9188;SDS011;34313;50.780;6.084;2023-01-25T09:13:31;42.10;;;20.27;;
9188;SDS011;34313;50.780;6.084;2023-01-25T09:16:04;48.97;;;19.03;;
9188;SDS011;34313;50.780;6.084;2023-01-25T09:18:31;51.27;;;20.80;;
9188;SDS011;34313;50.780;6.084;2023-01-25T09:20:58;47.43;;;21.17;;
9188;SDS011;34313;50.780;6.084;2023-01-25T09:23:29;45.80;;;20.53;;
9188;SDS011;34313;50.780;6.084;2023-01-25T09:26:00;47.70;;;21.53;;
9188;SDS011;34313;50.780;6.084;2023-01-25T09:28:27;44.93;;;19.17;;
9188;SDS011;34313;50.780;6.084;2023-01-25T09:30:57;43.23;;;19.87;;
9188;SDS011;34313;50.780;6.084;2023-01-25T09:33:25;50.50;;;18.13;;
9188;SDS011;34313;50.780;6.084;2023-01-25T09:35:55;44.20;;;19.67;;
9188;SDS011;34313;50.780;6.084;2023-01-25T09:38:20;42.10;;;18.53;;
9188;SDS011;34313;50.780;6.084;2023-01-25T09:40:53;51.00;;;20.53;;
9188;SDS011;34313;50.780;6.084;2023-01-25T09:46:40;39.53;;;19.63;;
9188;SDS011;34313;50.780;6.084;2023-01-25T09:54:59;45.60;;;19.73;;
9188;SDS011;34313;50.780;6.084;2023-01-25T09:57:33;40.90;;;18.70;;
9188;SDS011;34313;50.780;6.084;2023-01-25T10:00:05;44.50;;;18.70;;
9188;SDS011;34313;50.780;6.084;2023-01-25T10:02:40;42.47;;;19.13;;
9188;SDS011;34313;50.780;6.084;2023-01-25T10:05:20;39.23;;;19.13;;
9188;SDS011;34313;50.780;6.084;2023-01-25T10:10:53;51.60;;;19.50;;
9188;SDS011;34313;50.780;6.084;2023-01-25T10:13:24;43.33;;;17.47;;
9188;SDS011;34313;50.780;6.084;2023-01-25T10:15:56;39.87;;;17.87;;
9188;SDS011;34313;50.780;6.084;2023-01-25T10:21:26;40.20;;;19.33;;
9188;SDS011;34313;50.780;6.084;2023-01-25T10:27:29;38.57;;;18.73;;
9188;SDS011;34313;50.780;6.084;2023-01-25T10:30:23;46.83;;;20.20;;
9188;SDS011;34313;50.780;6.084;2023-01-25T10:32:53;47.87;;;19.67;;
9188;SDS011;34313;50.780;6.084;2023-01-25T10:35:28;47.67;;;20.70;;
9188;SDS011;34313;50.780;6.084;2023-01-25T10:38:02;41.47;;;18.90;;
9188;SDS011;34313;50.780;6.084;2023-01-25T10:40:40;40.53;;;20.70;;
9188;SDS011;34313;50.780;6.084;2023-01-25T10:43:14;42.80;;;19.27;;
9188;SDS011;34313;50.780;6.084;2023-01-25T10:45:42;51.73;;;21.20;;
9188;SDS011;34313;50.780;6.084;2023-01-25T10:48:11;43.67;;;18.37;;
9188;SDS011;34313;50.780;6.084;2023-01-25T10:50:43;35.47;;;17.37;;
9188;SDS011;34313;50.780;6.084;2023-01-25T10:53:30;41.87;;;17.53;;
9188;SDS011;34313;50.780;6.084;2023-01-25T10:58:38;39.40;;;17.90;;
9188;SDS011;34313;50.780;6.084;2023-01-25T11:01:25;44.73;;;20.67;;
9188;SDS011;34313;50.780;6.084;2023-01-25T11:03:53;42.90;;;19.40;;
9188;SDS011;34313;50.780;6.084;2023-01-25T11:06:30;44.50;;;19.87;;
9188;SDS011;34313;50.780;6.084;2023-01-25T11:09:00;41.37;;;20.10;;
9188;SDS011;34313;50.780;6.084;2023-01-25T11:11:55;38.50;;;18.20;;
9188;SDS011;34313;50.780;6.084;2023-01-25T11:14:40;41.40;;;19.83;;
9188;SDS011;34313;50.780;6.084;2023-01-25T11:17:18;45.73;;;19.43;;
9188;SDS011;34313;50.780;6.084;2023-01-25T11:19:47;38.73;;;19.43;;
9188;SDS011;34313;50.780;6.084;2023-01-25T11:24:43;41.13;;;20.43;;
9188;SDS011;34313;50.780;6.084;2023-01-25T11:27:19;44.87;;;19.43;;
9188;SDS011;34313;50.780;6.084;2023-01-25T11:32:35;45.50;;;21.53;;
9188;SDS011;34313;50.780;6.084;2023-01-25T11:35:02;46.77;;;20.20;;
9188;SDS011;34313;50.780;6.084;2023-01-25T11:37:36;48.00;;;22.07;;
9188;SDS011;34313;50.780;6.084;2023-01-25T11:40:38;44.07;;;19.87;;
9188;SDS011;34313;50.780;6.084;2023-01-25T11:49:17;45.00;;;20.00;;
9188;SDS011;34313;50.780;6.084;2023-01-25T11:54:54;45.17;;;20.90;;
9188;SDS011;34313;50.780;6.084;2023-01-25T12:06:05;48.77;;;19.40;;
9188;SDS011;34313;50.780;6.084;2023-01-25T12:16:57;46.73;;;20.50;;
9188;SDS011;34313;50.780;6.084;2023-01-25T12:30:38;49.07;;;19.33;;
9188;SDS011;34313;50.780;6.084;2023-01-25T12:33:15;41.37;;;19.60;;
9188;SDS011;34313;50.780;6.084;2023-01-25T12:36:00;46.63;;;19.17;;
9188;SDS011;34313;50.780;6.084;2023-01-25T12:41:19;48.30;;;20.00;;
9188;SDS011;34313;50.780;6.084;2023-01-25T12:44:12;39.57;;;19.27;;
9188;SDS011;34313;50.780;6.084;2023-01-25T12:47:08;40.77;;;18.40;;
9188;SDS011;34313;50.780;6.084;2023-01-25T12:49:47;46.20;;;17.97;;
9188;SDS011;34313;50.780;6.084;2023-01-25T12:52:28;44.67;;;20.63;;
9188;SDS011;34313;50.780;6.084;2023-01-25T12:54:56;42.17;;;17.83;;
9188;SDS011;34313;50.780;6.084;2023-01-25T12:57:27;43.00;;;18.53;;
9188;SDS011;34313;50.780;6.084;2023-01-25T13:00:03;45.50;;;19.23;;
9188;SDS011;34313;50.780;6.084;2023-01-25T13:02:38;42.47;;;17.70;;
9188;SDS011;34313;50.780;6.084;2023-01-25T13:11:26;39.10;;;17.07;;
9188;SDS011;34313;50.780;6.084;2023-01-25T13:14:17;46.17;;;19.47;;
9188;SDS011;34313;50.780;6.084;2023-01-25T13:16:49;41.10;;;18.57;;
9188;SDS011;34313;50.780;6.084;2023-01-25T13:19:20;49.53;;;20.40;;
9188;SDS011;34313;50.780;6.084;2023-01-25T13:21:55;47.23;;;21.47;;
9188;SDS011;34313;50.780;6.084;2023-01-25T13:24:29;46.30;;;21.30;;
9188;SDS011;34313;50.780;6.084;2023-01-25T13:26:57;45.97;;;18.80;;
9188;SDS011;34313;50.780;6.084;2023-01-25T13:32:51;41.50;;;19.10;;
9188;SDS011;34313;50.780;6.084;2023-01-25T13:34:59;46.93;;;19.60;;
9188;SDS011;34313;50.780;6.084;2023-01-25T13:37:26;41.67;;;18.90;;
9188;SDS011;34313;50.780;6.084;2023-01-25T13:39:59;50.03;;;19.07;;
9188;SDS011;34313;50.780;6.084;2023-01-25T13:44:58;42.17;;;18.27;;
9188;SDS011;34313;50.780;6.084;2023-01-25T13:47:31;43.93;;;19.37;;
9188;SDS011;34313;50.780;6.084;2023-01-25T13:50:23;46.57;;;19.53;;
9188;SDS011;34313;50.780;6.084;2023-01-25T13:52:57;38.87;;;19.10;;
9188;SDS011;34313;50.780;6.084;2023-01-25T13:55:41;40.67;;;17.27;;
9188;SDS011;34313;50.780;6.084;2023-01-25T13:58:20;42.17;;;17.80;;
9188;SDS011;34313;50.780;6.084;2023-01-25T14:03:16;39.70;;;17.70;;
9188;SDS011;34313;50.780;6.084;2023-01-25T14:05:47;39.83;;;17.47;;
9188;SDS011;34313;50.780;6.084;2023-01-25T14:08:16;30.77;;;14.97;;
9188;SDS011;34313;50.780;6.084;2023-01-25T14:10:44;39.60;;;16.67;;
9188;SDS011;34313;50.780;6.084;2023-01-25T14:13:12;34.43;;;16.53;;
9188;SDS011;34313;50.780;6.084;2023-01-25T14:15:39;37.47;;;15.00;;
9188;SDS011;34313;50.780;6.084;2023-01-25T14:18:17;37.60;;;16.80;;
9188;SDS011;34313;50.780;6.084;2023-01-25T14:20:47;38.60;;;16.77;;
9188;SDS011;34313;50.780;6.084;2023-01-25T14:25:48;34.30;;;16.43;;
9188;SDS011;34313;50.780;6.084;2023-01-25T14:28:14;41.50;;;17.80;;
9188;SDS011;34313;50.780;6.084;2023-01-25T14:30:39;39.50;;;18.07;;
9188;SDS011;34313;50.780;6.084;2023-01-25T14:33:15;44.60;;;17.77;;
9188;SDS011;34313;50.780;6.084;2023-01-25T14:35:45;39.70;;;17.97;;
9188;SDS011;34313;50.780;6.084;2023-01-25T14:40:43;48.17;;;19.00;;
9188;SDS011;34313;50.780;6.084;2023-01-25T14:43:10;51.40;;;20.00;;
9188;SDS011;34313;50.780;6.084;2023-01-25T14:45:36;39.43;;;17.53;;
9188;SDS011;34313;50.780;6.084;2023-01-25T14:48:01;41.50;;;18.33;;
9188;SDS011;34313;50.780;6.084;2023-01-25T14:53:05;42.00;;;17.13;;
9188;SDS011;34313;50.780;6.084;2023-01-25T14:55:30;45.97;;;17.50;;
9188;SDS011;34313;50.780;6.084;2023-01-25T14:57:59;36.50;;;17.60;;
9188;SDS011;34313;50.780;6.084;2023-01-25T15:00:27;42.77;;;17.37;;
9188;SDS011;34313;50.780;6.084;2023-01-25T15:03:14;44.60;;;17.60;;
9188;SDS011;34313;50.780;6.084;2023-01-25T15:05:43;44.40;;;17.57;;
9188;SDS011;34313;50.780;6.084;2023-01-25T15:10:37;41.87;;;17.67;;
9188;SDS011;34313;50.780;6.084;2023-01-25T15:21:15;39.20;;;16.07;;
9188;SDS011;34313;50.780;6.084;2023-01-25T15:23:46;40.47;;;16.60;;
9188;SDS011;34313;50.780;6.084;2023-01-25T15:26:23;38.17;;;16.70;;
9188;SDS011;34313;50.780;6.084;2023-01-25T15:28:52;40.37;;;16.20;;
9188;SDS011;34313;50.780;6.084;2023-01-25T15:33:56;36.70;;;15.50;;
9188;SDS011;34313;50.780;6.084;2023-01-25T15:36:22;38.70;;;16.10;;
9188;SDS011;34313;50.780;6.084;2023-01-25T15:38:48;40.87;;;15.83;;
9188;SDS011;34313;50.780;6.084;2023-01-25T15:41:13;38.23;;;15.70;;
9188;SDS011;34313;50.780;6.084;2023-01-25T15:43:42;35.63;;;16.63;;
9188;SDS011;34313;50.780;6.084;2023-01-25T15:46:15;35.60;;;16.25;;
9188;SDS011;34313;50.780;6.084;2023-01-25T15:48:43;37.20;;;17.97;;
9188;SDS011;34313;50.780;6.084;2023-01-25T15:51:10;33.37;;;15.30;;
9188;SDS011;34313;50.780;6.084;2023-01-25T15:53:37;34.73;;;15.50;;
9188;SDS011;34313;50.780;6.084;2023-01-25T15:56:04;34.17;;;15.60;;
9188;SDS011;34313;50.780;6.084;2023-01-25T15:58:36;41.23;;;15.07;;
9188;SDS011;34313;50.780;6.084;2023-01-25T16:01:03;37.57;;;15.40;;
9188;SDS011;34313;50.780;6.084;2023-01-25T16:03:28;36.33;;;15.17;;
9188;SDS011;34313;50.780;6.084;2023-01-25T16:05:58;38.93;;;16.40;;
9188;SDS011;34313;50.780;6.084;2023-01-25T16:08:26;31.00;;;14.60;;
9188;SDS011;34313;50.780;6.084;2023-01-25T16:10:52;32.27;;;15.23;;
9188;SDS011;34313;50.780;6.084;2023-01-25T16:13:17;35.47;;;15.00;;
9188;SDS011;34313;50.780;6.084;2023-01-25T16:15:43;34.50;;;14.00;;
9188;SDS011;34313;50.780;6.084;2023-01-25T16:18:13;27.43;;;13.83;;
9188;SDS011;34313;50.780;6.084;2023-01-25T16:20:39;29.23;;;13.83;;
9188;SDS011;34313;50.780;6.084;2023-01-25T16:23:04;35.40;;;14.23;;
9188;SDS011;34313;50.780;6.084;2023-01-25T16:25:30;33.40;;;15.40;;
9188;SDS011;34313;50.780;6.084;2023-01-25T16:27:55;40.70;;;15.43;;
9188;SDS011;34313;50.780;6.084;2023-01-25T16:30:22;35.80;;;16.17;;
9188;SDS011;34313;50.780;6.084;2023-01-25T16:32:51;33.10;;;15.00;;
9188;SDS011;34313;50.780;6.084;2023-01-25T16:35:17;33.13;;;14.27;;
9188;SDS011;34313;50.780;6.084;2023-01-25T16:37:43;38.63;;;16.00;;
9188;SDS011;34313;50.780;6.084;2023-01-25T16:42:56;35.70;;;14.47;;